| time (UTC) | temp C | wind direction | speed KPH | gust KPH | rain 1hr cm | rain 24hr cm | rain mn cm | humidity % | barometer mb |
| 20260905224539 | 36 | 196 | 4.8 | 11.3 | 0.00 | 0.00 | 0.00 | 40 | 1010.3 |
| 20260905223035 | 36 | 259 | 1.6 | 8.0 | 0.00 | 0.00 | 0.00 | 39 | 1010.5 |
| 20260905221541 | 36 | 216 | 1.6 | 4.8 | 0.00 | 0.00 | 0.00 | 40 | 1010.6 |
| 20260905220038 | 35 | 247 | 1.6 | 4.8 | 0.00 | 0.00 | 0.00 | 54 | 1010.6 |
| 20260905214534 | 35 | 267 | 3.2 | 8.0 | 0.00 | 0.00 | 0.00 | 54 | 1010.6 |
| 20260905213037 | 34 | 254 | 3.2 | 9.7 | 0.00 | 0.00 | 0.00 | 42 | 1010.6 |
| 20260905211535 | 33 | 273 | 1.6 | 11.3 | 0.00 | 0.00 | 0.00 | 44 | 1010.8 |
| 20260905210035 | 34 | 266 | 6.4 | 20.9 | 0.00 | 0.00 | 0.00 | 56 | 1011.1 |
| 20260905204537 | 36 | 295 | 0.0 | 9.7 | 0.00 | 0.00 | 0.00 | 52 | 1011.0 |
| 20260905203038 | 36 | 226 | 4.8 | 11.3 | 0.00 | 0.00 | 0.00 | 35 | 1011.3 |
| 20260905201535 | 37 | 187 | 12.9 | 17.7 | 0.00 | 0.00 | 0.00 | 34 | 1011.5 |
| 20260905200033 | 37 | 237 | 8.0 | 14.5 | 0.00 | 0.00 | 0.00 | 48 | 1011.4 |
| 20260905194535 | 37 | 107 | 6.4 | 20.9 | 0.00 | 0.00 | 0.00 | 36 | 1011.8 |
| 20260905193035 | 37 | 248 | 9.7 | 24.1 | 0.00 | 0.00 | 0.00 | 35 | 1011.9 |
| 20260905191537 | 38 | 0 | 3.2 | 8.0 | 0.00 | 0.00 | 0.00 | 35 | 1012.3 |
| 20260905190056 | 37 | 0 | 3.2 | 12.9 | 0.00 | 0.00 | 0.00 | 37 | 1012.6 |
| 20260905184553 | 37 | 283 | 3.2 | 9.7 | 0.00 | 0.00 | 0.00 | 38 | 1012.5 |
| 20260905183036 | 36 | 259 | 6.4 | 11.3 | 0.00 | 0.00 | 0.00 | 51 | 1012.8 |
| 20260905181534 | 36 | 229 | 6.4 | 11.3 | 0.00 | 0.00 | 0.00 | 41 | 1013.2 |
| 20260905180035 | 36 | 277 | 3.2 | 9.7 | 0.00 | 0.00 | 0.00 | 52 | 1013.2 |
| 20260905174543 | 36 | 272 | 3.2 | 9.7 | 0.00 | 0.00 | 0.00 | 53 | 1013.2 |
| 20260905173039 | 36 | 256 | 3.2 | 14.5 | 0.00 | 0.00 | 0.00 | 42 | 1013.3 |
| 20260905171533 | 35 | 354 | 6.4 | 11.3 | 0.00 | 0.00 | 0.00 | 54 | 1013.3 |
| 20260905170037 | 35 | 268 | 4.8 | 17.7 | 0.00 | 0.00 | 0.00 | 55 | 1013.3 |
| 20260905164536 | 35 | 183 | 4.8 | 9.7 | 0.00 | 0.00 | 0.00 | 55 | 1013.6 |
| 20260905163036 | 34 | 236 | 8.0 | 14.5 | 0.00 | 0.00 | 0.00 | 46 | 1013.9 |
| 20260905161537 | 34 | 267 | 4.8 | 11.3 | 0.00 | 0.00 | 0.00 | 48 | 1014.0 |
| 20260905160035 | 34 | 272 | 4.8 | 11.3 | 0.00 | 0.00 | 0.00 | 62 | 1014.2 |
| 20260905154534 | 33 | 227 | 4.8 | 9.7 | 0.00 | 0.00 | 0.00 | 52 | 1014.1 |
| 20260905153036 | 33 | 282 | 1.6 | 8.0 | 0.00 | 0.00 | 0.00 | 54 | 1014.1 |
| 20260905151538 | 32 | 300 | 4.8 | 11.3 | 0.00 | 0.00 | 0.00 | 69 | 1014.1 |
| 20260905150034 | 32 | 229 | 6.4 | 8.0 | 0.00 | 0.00 | 0.00 | 57 | 1014.1 |
| 20260905144541 | 32 | 263 | 4.8 | 11.3 | 0.00 | 0.00 | 0.00 | 68 | 1014.2 |
| 20260905143035 | 31 | 190 | 6.4 | 11.3 | 0.00 | 0.00 | 0.00 | 70 | 1014.3 |
| 20260905141542 | 30 | 208 | 6.4 | 11.3 | 0.00 | 0.00 | 0.00 | 60 | 1014.3 |
| 20260905140036 | 30 | 184 | 1.6 | 6.4 | 0.00 | 0.00 | 0.00 | 65 | 1014.4 |
| 20260905134537 | 29 | 166 | 0.0 | 3.2 | 0.00 | 0.00 | 0.00 | 68 | 1014.5 |
| 20260905133036 | 28 | 176 | 3.2 | 8.0 | 0.00 | 0.00 | 0.00 | 72 | 1014.5 |
| 20260905131552 | 27 | 171 | 1.6 | 4.8 | 0.00 | 0.00 | 0.00 | 76 | 1014.6 |
| 20260905130038 | 26 | 167 | 4.8 | 6.4 | 0.00 | 0.00 | 0.00 | 78 | 1014.6 |
| 20260905124546 | 26 | 0 | 0.0 | 0.0 | 0.00 | 0.00 | 0.00 | 79 | 1014.6 |
| 20260905123045 | 25 | 0 | 0.0 | 0.0 | 0.00 | 0.00 | 0.00 | 81 | 1014.6 |
| 20260905121538 | 24 | 0 | 0.0 | 1.6 | 0.00 | 0.00 | 0.00 | 84 | 1014.5 |
| 20260905120036 | 23 | 178 | 0.0 | 3.2 | 0.00 | 0.00 | 0.00 | 85 | 1014.3 |
| 20260905114542 | 22 | 176 | 1.6 | 3.2 | 0.00 | 0.00 | 0.00 | 85 | 1014.2 |
| 20260905113041 | 23 | 153 | 0.0 | 3.2 | 0.00 | 0.00 | 0.00 | 85 | 1013.9 |
| 20260905111550 | 23 | 165 | 4.8 | 6.4 | 0.00 | 0.00 | 0.00 | 84 | 1013.9 |
| 20260905110035 | 23 | 188 | 0.0 | 1.6 | 0.00 | 0.00 | 0.00 | 84 | 1013.5 |
| 20260905104554 | 23 | 190 | 0.0 | 1.6 | 0.00 | 0.00 | 0.00 | 84 | 1013.3 |
| 20260905103036 | 23 | 185 | 0.0 | 1.6 | 0.00 | 0.00 | 0.00 | 83 | 1013.3 |
| 20260905101540 | 23 | 0 | 0.0 | 0.0 | 0.00 | 0.00 | 0.00 | 84 | 1013.3 |
| 20260905100034 | 23 | 0 | 0.0 | 0.0 | 0.00 | 0.00 | 0.00 | 84 | 1013.2 |
| 20260905094536 | 23 | 185 | 0.0 | 1.6 | 0.00 | 0.00 | 0.00 | 84 | 1013.3 |
| 20260905093034 | 23 | 0 | 0.0 | 1.6 | 0.00 | 0.00 | 0.00 | 83 | 1013.2 |
| 20260905091536 | 23 | 0 | 0.0 | 4.8 | 0.00 | 0.00 | 0.00 | 83 | 1013.1 |
| 20260905090037 | 23 | 171 | 1.6 | 3.2 | 0.00 | 0.00 | 0.00 | 81 | 1013.1 |
| 20260905084557 | 24 | 0 | 0.0 | 0.0 | 0.00 | 0.00 | 0.00 | 81 | 1013.1 |
| 20260905083033 | 24 | 0 | 0.0 | 0.0 | 0.00 | 0.00 | 0.00 | 81 | 1013.2 |
| 20260905081533 | 24 | 0 | 0.0 | 1.6 | 0.00 | 0.00 | 0.00 | 81 | 1013.2 |
| 20260905080035 | 24 | 0 | 0.0 | 1.6 | 0.00 | 0.00 | 0.00 | 81 | 1013.3 |
| 20260905074536 | 24 | 0 | 0.0 | 1.6 | 0.00 | 0.00 | 0.00 | 81 | 1013.4 |
| 20260905073036 | 25 | 0 | 0.0 | 1.6 | 0.00 | 0.00 | 0.00 | 80 | 1013.3 |
| 20260905071534 | 25 | 0 | 0.0 | 0.0 | 0.00 | 0.00 | 0.00 | 79 | 1013.5 |
| 20260905070033 | 25 | 0 | 0.0 | 0.0 | 0.00 | 0.00 | 0.00 | 79 | 1013.6 |
| 20260905064535 | 25 | 0 | 0.0 | 1.6 | 0.00 | 0.00 | 0.00 | 79 | 1013.6 |
| 20260905063035 | 25 | 0 | 0.0 | 1.6 | 0.00 | 0.00 | 0.00 | 79 | 1013.6 |
| 20260905061533 | 25 | 0 | 0.0 | 3.2 | 0.00 | 0.00 | 0.00 | 79 | 1013.7 |
| 20260905060035 | 25 | 178 | 3.2 | 3.2 | 0.00 | 0.00 | 0.00 | 77 | 1013.8 |
| 20260905054536 | 26 | 0 | 0.0 | 0.0 | 0.00 | 0.00 | 0.00 | 76 | 1013.8 |
| 20260905053034 | 26 | 0 | 0.0 | 4.8 | 0.00 | 0.00 | 0.00 | 76 | 1013.9 |
| 20260905051539 | 26 | 0 | 0.0 | 3.2 | 0.00 | 0.00 | 0.00 | 75 | 1013.9 |
| 20260905050036 | 26 | 209 | 0.0 | 1.6 | 0.00 | 0.00 | 0.00 | 77 | 1013.7 |
| 20260905044535 | 26 | 0 | 0.0 | 1.6 | 0.00 | 0.00 | 0.00 | 77 | 1013.7 |
| 20260905043033 | 26 | 200 | 0.0 | 4.8 | 0.00 | 0.00 | 0.00 | 77 | 1013.8 |
| 20260905041538 | 26 | 0 | 0.0 | 1.6 | 0.00 | 0.00 | 0.00 | 75 | 1013.7 |
| 20260905040035 | 26 | 180 | 0.0 | 1.6 | 0.00 | 0.00 | 0.00 | 75 | 1013.8 |
| 20260905034544 | 27 | 180 | 0.0 | 3.2 | 0.00 | 0.00 | 0.00 | 74 | 1013.9 |
| 20260905033034 | 27 | 0 | 0.0 | 1.6 | 0.00 | 0.00 | 0.00 | 73 | 1013.9 |
| 20260905031538 | 27 | 0 | 0.0 | 0.0 | 0.00 | 0.00 | 0.00 | 73 | 1014.1 |
| 20260905030036 | 27 | 0 | 0.0 | 1.6 | 0.00 | 0.00 | 0.00 | 72 | 1014.1 |
| 20260905024536 | 27 | 0 | 0.0 | 1.6 | 0.00 | 0.00 | 0.00 | 71 | 1014.1 |
| 20260905023042 | 27 | 0 | 0.0 | 1.6 | 0.00 | 0.00 | 0.00 | 70 | 1014.0 |
| 20260905021541 | 28 | 0 | 0.0 | 0.0 | 0.00 | 0.00 | 0.00 | 70 | 1013.8 |
| 20260905020034 | 28 | 0 | 0.0 | 0.0 | 0.00 | 0.00 | 0.00 | 69 | 1013.7 |
| 20260905014535 | 28 | 0 | 0.0 | 0.0 | 0.00 | 0.00 | 0.00 | 67 | 1013.7 |
| 20260905013035 | 29 | 0 | 0.0 | 1.6 | 0.00 | 0.00 | 0.00 | 66 | 1013.5 |
| 20260905011539 | 29 | 0 | 0.0 | 3.2 | 0.00 | 0.00 | 0.00 | 66 | 1013.5 |
| 20260905010036 | 30 | 181 | 0.0 | 1.6 | 0.00 | 0.00 | 0.00 | 79 | 1013.5 |
| 20260905004545 | 30 | 0 | 0.0 | 1.6 | 0.00 | 0.00 | 0.00 | 67 | 1013.6 |
| 20260905003037 | 30 | 0 | 0.0 | 1.6 | 0.00 | 0.00 | 0.00 | 66 | 1013.3 |
| 20260905001535 | 30 | 345 | 0.0 | 1.6 | 0.00 | 0.00 | 0.00 | 66 | 1013.3 |
| 20260905000035 | 32 | 345 | 0.0 | 1.6 | 0.00 | 0.00 | 0.00 | 72 | 1013.2 |
| 20260904234544 | 36 | 199 | 0.0 | 0.0 | 0.00 | 0.00 | 0.00 | 53 | 1013.2 |
| 20260904233052 | 37 | 0 | 0.0 | 1.6 | 0.00 | 0.00 | 0.00 | 45 | 1012.9 |
| 20260904231535 | 37 | 0 | 0.0 | 1.6 | 0.00 | 0.00 | 0.00 | 54 | 1012.9 |
| 20260904230036 | 37 | 237 | 0.0 | 6.4 | 0.00 | 0.00 | 0.00 | 36 | 1012.8 |